createdAt,value
2023-04-29T00:00:07.442Z,21.43
2023-04-29T00:02:39.786Z,21.43
2023-04-29T00:05:06.989Z,21.47
2023-04-29T00:07:33.907Z,21.34
2023-04-29T00:10:00.530Z,21.28
2023-04-29T00:12:28.089Z,21.30
2023-04-29T00:14:54.613Z,21.23
2023-04-29T00:17:21.196Z,21.18
2023-04-29T00:19:48.188Z,21.32
2023-04-29T00:22:14.737Z,21.32
2023-04-29T00:24:41.314Z,21.38
2023-04-29T00:27:07.805Z,21.37
2023-04-29T00:29:34.320Z,21.43
2023-04-29T00:32:00.854Z,21.38
2023-04-29T00:34:27.534Z,21.38
2023-04-29T00:36:54.612Z,21.24
2023-04-29T00:39:21.696Z,21.22
2023-04-29T00:41:48.232Z,21.19
2023-04-29T00:44:14.747Z,21.22
2023-04-29T00:46:41.501Z,21.28
2023-04-29T00:49:08.322Z,21.37
2023-04-29T00:51:36.486Z,21.43
2023-04-29T00:54:04.474Z,21.49
2023-04-29T00:56:34.271Z,21.51
2023-04-29T00:59:02.669Z,21.42
2023-04-29T01:01:32.600Z,21.46
2023-04-29T01:03:59.630Z,20.82
2023-04-29T01:06:57.605Z,20.74
2023-04-29T01:09:49.853Z,20.57
2023-04-29T01:12:22.834Z,20.35
2023-04-29T01:14:54.560Z,20.67
2023-04-29T01:17:26.790Z,20.23
2023-04-29T01:19:57.660Z,20.19
2023-04-29T01:22:24.217Z,20.15
2023-04-29T01:24:51.178Z,20.15
2023-04-29T01:27:25.872Z,20.28
2023-04-29T01:30:22.251Z,20.26
2023-04-29T01:32:53.847Z,20.11
2023-04-29T01:35:49.452Z,20.16
2023-04-29T01:38:38.914Z,20.40
2023-04-29T01:41:16.008Z,20.17
2023-04-29T01:43:48.455Z,20.38
2023-04-29T01:46:20.388Z,20.25
2023-04-29T01:48:48.166Z,20.31
2023-04-29T01:51:15.005Z,20.31
2023-04-29T01:53:41.807Z,20.29
2023-04-29T01:56:08.487Z,20.36
2023-04-29T01:58:45.414Z,20.44
2023-04-29T02:01:31.583Z,20.50
2023-04-29T02:03:58.367Z,20.48
2023-04-29T02:06:25.433Z,20.44
2023-04-29T02:08:57.674Z,20.52
2023-04-29T02:11:24.539Z,20.55
2023-04-29T02:13:54.759Z,20.57
2023-04-29T02:16:22.085Z,20.58
2023-04-29T02:18:56.049Z,20.42
2023-04-29T02:21:22.655Z,20.40
2023-04-29T02:23:49.191Z,20.13
2023-04-29T02:26:15.747Z,20.18
2023-04-29T02:28:42.489Z,20.02
2023-04-29T02:31:09.064Z,19.87
2023-04-29T02:33:36.171Z,19.87
2023-04-29T02:36:02.758Z,20.03
2023-04-29T02:38:29.319Z,20.15
2023-04-29T02:40:55.799Z,20.21
2023-04-29T02:43:22.567Z,20.18
2023-04-29T02:45:49.162Z,20.17
2023-04-29T02:48:16.073Z,20.35
2023-04-29T02:50:42.580Z,20.27
2023-04-29T02:53:09.722Z,20.42
2023-04-29T02:55:36.566Z,20.42
2023-04-29T02:58:07.825Z,20.56
2023-04-29T03:00:34.334Z,20.54
2023-04-29T03:03:01.742Z,20.60
2023-04-29T03:05:28.586Z,20.67
2023-04-29T03:07:55.278Z,20.71
2023-04-29T03:10:22.011Z,20.86
2023-04-29T03:12:48.574Z,20.73
2023-04-29T03:15:15.742Z,20.71
2023-04-29T03:17:42.810Z,20.69
2023-04-29T03:20:10.903Z,20.85
2023-04-29T03:22:37.469Z,20.77
2023-04-29T03:25:04.832Z,20.74
2023-04-29T03:27:31.473Z,20.92
2023-04-29T03:29:58.000Z,20.85
2023-04-29T03:32:24.596Z,20.82
2023-04-29T03:34:51.253Z,20.91
2023-04-29T03:37:38.095Z,20.89
2023-04-29T03:40:27.982Z,20.95
2023-04-29T03:42:54.527Z,20.93
2023-04-29T03:45:21.213Z,20.95
2023-04-29T03:47:47.812Z,20.89
2023-04-29T03:50:14.379Z,20.98
2023-04-29T03:52:41.425Z,20.98
2023-04-29T03:55:14.320Z,20.98
2023-04-29T03:57:42.675Z,20.93
2023-04-29T04:00:10.502Z,21.15
2023-04-29T04:02:40.064Z,21.09
2023-04-29T04:05:08.756Z,21.16
2023-04-29T04:07:35.610Z,21.25
2023-04-29T04:10:20.733Z,21.16
2023-04-29T04:12:47.611Z,21.21
2023-04-29T04:15:14.470Z,21.24
2023-04-29T04:17:41.043Z,21.25
2023-04-29T04:20:08.048Z,21.31
2023-04-29T04:22:34.652Z,21.26
2023-04-29T04:25:13.383Z,21.23
2023-04-29T04:27:39.915Z,21.27
2023-04-29T04:30:09.803Z,21.30
2023-04-29T04:32:36.775Z,21.29
2023-04-29T04:35:03.728Z,21.28
2023-04-29T04:37:30.247Z,21.30
2023-04-29T04:40:00.567Z,21.34
2023-04-29T04:42:27.294Z,21.32
2023-04-29T04:44:57.326Z,21.29
2023-04-29T04:47:48.364Z,21.18
2023-04-29T04:50:21.970Z,20.99
2023-04-29T04:52:49.958Z,20.85
2023-04-29T04:55:31.764Z,20.76
2023-04-29T04:57:58.660Z,20.61
2023-04-29T05:00:25.251Z,20.67
2023-04-29T05:02:52.131Z,20.71
2023-04-29T05:05:18.886Z,20.85
2023-04-29T05:07:45.501Z,20.80
2023-04-29T05:10:12.264Z,20.95
2023-04-29T05:12:45.938Z,20.79
2023-04-29T05:15:12.959Z,21.06
2023-04-29T05:17:39.668Z,21.07
2023-04-29T05:20:07.176Z,21.17
2023-04-29T05:22:34.156Z,21.24
2023-04-29T05:25:03.181Z,21.32
2023-04-29T05:27:31.504Z,21.47
2023-04-29T05:29:58.231Z,21.45
2023-04-29T05:32:24.886Z,21.53
2023-04-29T05:34:51.593Z,21.56
2023-04-29T05:37:18.100Z,21.53
2023-04-29T05:40:00.348Z,21.53
2023-04-29T05:42:27.497Z,21.55
2023-04-29T05:44:54.103Z,21.56
2023-04-29T05:47:20.675Z,21.57
2023-04-29T05:49:47.630Z,21.56
2023-04-29T05:52:14.169Z,21.74
2023-04-29T05:54:45.067Z,21.77
2023-04-29T05:57:12.131Z,21.73
2023-04-29T05:59:40.112Z,21.72
2023-04-29T06:02:06.709Z,21.73
2023-04-29T06:04:34.590Z,21.86
2023-04-29T06:07:24.320Z,21.78
2023-04-29T06:09:57.869Z,21.74
2023-04-29T06:12:25.759Z,21.80
2023-04-29T06:14:52.410Z,21.80
2023-04-29T06:17:19.996Z,21.86
2023-04-29T06:19:46.511Z,21.84
2023-04-29T06:22:13.324Z,21.91
2023-04-29T06:24:45.787Z,21.93
2023-04-29T06:27:14.741Z,22.04
2023-04-29T06:29:42.038Z,21.99
2023-04-29T06:32:08.754Z,22.05
2023-04-29T06:34:36.158Z,22.16
2023-04-29T06:37:21.842Z,22.28
2023-04-29T06:40:06.141Z,22.12
2023-04-29T06:42:52.519Z,22.23
2023-04-29T06:45:37.579Z,22.25
2023-04-29T06:48:08.920Z,22.19
2023-04-29T06:50:38.778Z,21.87
2023-04-29T06:53:07.023Z,21.83
2023-04-29T06:55:35.577Z,21.83
2023-04-29T06:58:04.478Z,21.79
2023-04-29T07:00:31.900Z,22.00
2023-04-29T07:02:58.783Z,21.99
2023-04-29T07:05:25.424Z,22.02
2023-04-29T07:07:51.955Z,21.75
2023-04-29T07:10:18.475Z,21.59
2023-04-29T07:12:46.692Z,21.66
2023-04-29T07:15:14.592Z,21.43
2023-04-29T07:17:41.186Z,21.26
2023-04-29T07:20:08.404Z,21.36
2023-04-29T07:22:34.916Z,21.35
2023-04-29T07:25:02.514Z,21.38
2023-04-29T07:27:29.571Z,21.47
2023-04-29T07:29:56.853Z,21.38
2023-04-29T07:32:23.379Z,21.40
2023-04-29T07:34:50.010Z,21.38
2023-04-29T07:37:16.826Z,21.33
2023-04-29T07:39:43.335Z,21.24
2023-04-29T07:42:10.386Z,21.20
2023-04-29T07:44:36.971Z,21.23
2023-04-29T07:47:03.481Z,21.20
2023-04-29T07:49:30.368Z,21.25
2023-04-29T07:51:57.075Z,21.36
2023-04-29T07:54:23.784Z,21.27
2023-04-29T07:56:50.824Z,21.27
2023-04-29T07:59:19.451Z,21.23
2023-04-29T08:01:46.729Z,21.04
2023-04-29T08:04:13.969Z,20.95
2023-04-29T08:06:48.903Z,21.12
2023-04-29T08:09:16.258Z,20.91
2023-04-29T08:11:43.488Z,21.02
2023-04-29T08:14:12.526Z,20.97
2023-04-29T08:16:39.235Z,20.99
2023-04-29T08:19:06.042Z,20.91
2023-04-29T08:21:32.848Z,20.76
2023-04-29T08:23:59.466Z,20.84
2023-04-29T08:26:26.763Z,20.94
2023-04-29T08:28:53.317Z,20.77
2023-04-29T08:31:21.394Z,20.90
2023-04-29T08:33:48.284Z,20.75
2023-04-29T08:36:14.850Z,20.76
2023-04-29T08:38:41.410Z,20.89
2023-04-29T08:41:09.689Z,21.06
2023-04-29T08:43:40.842Z,20.96
2023-04-29T08:46:07.406Z,21.71
2023-04-29T08:48:34.688Z,21.08
2023-04-29T08:51:02.461Z,20.92
2023-04-29T08:53:29.195Z,20.94
2023-04-29T08:55:58.498Z,20.97
2023-04-29T08:58:26.463Z,20.80
2023-04-29T09:00:53.296Z,20.92
2023-04-29T09:03:25.282Z,20.89
2023-04-29T09:05:53.960Z,20.79
2023-04-29T09:08:22.486Z,20.67
2023-04-29T09:10:49.385Z,20.51
2023-04-29T09:13:29.705Z,20.83
2023-04-29T09:15:56.654Z,20.70
2023-04-29T09:18:41.990Z,20.77
2023-04-29T09:21:23.014Z,20.83
2023-04-29T09:24:00.243Z,20.74
2023-04-29T09:26:27.392Z,20.41
2023-04-29T09:29:18.324Z,20.68
2023-04-29T09:31:45.514Z,20.70
2023-04-29T09:34:13.060Z,20.78
2023-04-29T09:36:39.510Z,20.76
2023-04-29T09:39:11.842Z,20.88
2023-04-29T09:41:59.752Z,21.06
2023-04-29T09:44:33.877Z,20.87
2023-04-29T09:47:04.231Z,20.95
2023-04-29T09:49:37.267Z,20.96
2023-04-29T09:52:05.819Z,20.84
2023-04-29T09:54:34.415Z,20.61
2023-04-29T09:57:02.380Z,20.65
2023-04-29T09:59:28.974Z,20.70
2023-04-29T10:01:57.076Z,20.69
2023-04-29T10:04:26.239Z,20.65
2023-04-29T10:06:54.428Z,20.70
2023-04-29T10:09:22.866Z,20.58
2023-04-29T10:11:53.608Z,20.64
2023-04-29T10:14:27.025Z,20.89
2023-04-29T10:17:03.998Z,21.02
2023-04-29T10:19:47.543Z,21.07
2023-04-29T10:22:20.623Z,21.10
2023-04-29T10:24:47.994Z,20.99
2023-04-29T10:27:15.859Z,20.99
2023-04-29T10:29:43.773Z,20.85
2023-04-29T10:32:10.947Z,20.82
2023-04-29T10:34:39.661Z,20.80
2023-04-29T10:37:10.418Z,20.88
2023-04-29T10:39:46.164Z,20.75
2023-04-29T10:42:25.774Z,20.85
2023-04-29T10:45:28.823Z,21.26
2023-04-29T10:48:06.109Z,21.12
2023-04-29T10:50:33.920Z,21.04
2023-04-29T10:53:04.436Z,20.71
2023-04-29T10:55:32.196Z,20.55
2023-04-29T10:57:58.735Z,20.40
2023-04-29T11:00:29.788Z,20.51
2023-04-29T11:03:01.161Z,20.73
2023-04-29T11:05:35.643Z,20.96
2023-04-29T11:08:23.056Z,20.91
2023-04-29T11:11:01.965Z,20.92
2023-04-29T11:13:30.326Z,20.86
2023-04-29T11:16:05.337Z,21.11
2023-04-29T11:18:32.436Z,21.01
2023-04-29T11:21:08.114Z,21.44
2023-04-29T11:23:37.744Z,21.47
2023-04-29T11:26:04.532Z,21.35
2023-04-29T11:28:32.045Z,21.30
2023-04-29T11:30:58.957Z,21.36
2023-04-29T11:33:27.816Z,21.49
2023-04-29T11:35:54.753Z,21.59
2023-04-29T11:38:28.229Z,21.87
2023-04-29T11:40:55.875Z,21.57
2023-04-29T11:43:23.562Z,21.55
2023-04-29T11:45:51.654Z,21.46
2023-04-29T11:48:25.392Z,21.53
2023-04-29T11:50:54.154Z,21.51
2023-04-29T11:53:22.109Z,21.43
2023-04-29T11:55:48.633Z,21.48
2023-04-29T11:58:18.668Z,21.56
2023-04-29T12:00:47.125Z,21.83
2023-04-29T12:03:15.776Z,21.84
2023-04-29T12:05:52.927Z,22.03
2023-04-29T12:08:23.356Z,21.86
2023-04-29T12:10:50.246Z,21.90
2023-04-29T12:13:18.003Z,21.83
2023-04-29T12:15:49.077Z,21.83
2023-04-29T12:18:16.259Z,22.61
2023-04-29T12:20:42.867Z,21.93
2023-04-29T12:23:16.465Z,21.97
2023-04-29T12:25:49.179Z,21.96
2023-04-29T12:28:15.963Z,21.64
2023-04-29T12:30:44.531Z,21.55
2023-04-29T12:33:11.090Z,21.61
2023-04-29T12:35:37.646Z,21.73
2023-04-29T12:38:04.188Z,21.81
2023-04-29T12:40:32.490Z,21.99
2023-04-29T12:43:07.120Z,22.17
2023-04-29T12:45:34.583Z,21.99
2023-04-29T12:48:01.805Z,22.15
2023-04-29T12:50:37.527Z,22.36
2023-04-29T12:53:05.172Z,22.58
2023-04-29T12:55:32.855Z,22.85
2023-04-29T12:58:01.098Z,23.02
2023-04-29T13:00:27.975Z,23.12
2023-04-29T13:02:55.221Z,23.05
2023-04-29T13:07:49.873Z,23.06
2023-04-29T13:10:16.401Z,23.29
2023-04-29T13:12:42.942Z,23.53
2023-04-29T13:15:10.366Z,23.58
2023-04-29T13:17:37.288Z,23.82
2023-04-29T13:20:05.062Z,23.91
2023-04-29T13:22:32.601Z,23.75
2023-04-29T13:24:59.182Z,23.61
2023-04-29T13:27:25.733Z,23.76
2023-04-29T13:29:52.461Z,23.76
2023-04-29T13:32:21.543Z,23.84
2023-04-29T13:34:48.225Z,23.80
2023-04-29T13:37:14.783Z,23.73
2023-04-29T13:39:45.319Z,23.98
2023-04-29T13:42:15.493Z,23.99
2023-04-29T13:44:52.602Z,24.35
2023-04-29T13:47:25.197Z,24.83
2023-04-29T13:55:14.862Z,25.89
2023-04-29T14:00:20.123Z,25.71
2023-04-29T14:05:25.760Z,25.38
2023-04-29T14:07:52.400Z,25.16
2023-04-29T14:10:18.964Z,24.93
2023-04-29T14:12:45.640Z,24.84
2023-04-29T14:15:12.208Z,24.75
2023-04-29T14:17:38.733Z,24.50
2023-04-29T14:20:05.859Z,24.54
2023-04-29T14:22:32.375Z,24.60
2023-04-29T14:24:58.893Z,24.58
2023-04-29T14:27:25.595Z,24.32
2023-04-29T14:29:52.070Z,24.31
2023-04-29T14:32:18.647Z,24.25
2023-04-29T14:34:45.189Z,24.20
2023-04-29T14:37:12.113Z,24.27
2023-04-29T14:39:38.719Z,24.17
2023-04-29T14:42:05.371Z,24.10
2023-04-29T14:44:31.890Z,24.37
2023-04-29T14:46:58.376Z,24.63
2023-04-29T14:49:24.952Z,24.75
2023-04-29T14:51:51.648Z,24.43
2023-04-29T14:54:18.277Z,24.43
2023-04-29T14:56:44.868Z,24.18
2023-04-29T14:59:11.403Z,24.11
2023-04-29T15:01:39.704Z,24.30
2023-04-29T15:04:06.378Z,24.13
2023-04-29T15:06:33.048Z,24.05
2023-04-29T15:08:59.967Z,24.03
2023-04-29T15:11:26.552Z,24.19
2023-04-29T15:13:53.050Z,24.09
2023-04-29T15:16:19.670Z,24.17
2023-04-29T15:18:46.527Z,24.01
2023-04-29T15:21:13.132Z,24.05
2023-04-29T15:23:39.653Z,24.23
2023-04-29T15:26:07.153Z,24.17
2023-04-29T15:28:33.751Z,24.15
2023-04-29T15:31:01.864Z,24.10
2023-04-29T15:33:28.418Z,24.11
2023-04-29T15:35:56.657Z,24.04
2023-04-29T15:38:23.288Z,23.84
2023-04-29T15:40:49.933Z,23.87
2023-04-29T15:43:16.658Z,23.85
2023-04-29T15:45:44.474Z,23.82
2023-04-29T15:48:11.010Z,23.80
2023-04-29T15:50:37.523Z,23.79
2023-04-29T15:53:04.010Z,23.76
2023-04-29T15:55:30.515Z,23.75
2023-04-29T15:57:57.002Z,23.72
2023-04-29T16:00:23.538Z,23.69
2023-04-29T16:02:50.095Z,23.74
2023-04-29T16:05:16.667Z,23.68
2023-04-29T16:07:43.178Z,23.70
2023-04-29T16:10:09.998Z,23.69
2023-04-29T16:12:36.516Z,23.69
2023-04-29T16:15:03.349Z,23.67
2023-04-29T16:17:31.888Z,23.74
2023-04-29T16:19:58.533Z,23.64
2023-04-29T16:22:25.016Z,23.59
2023-04-29T16:24:51.542Z,23.58
2023-04-29T16:27:18.807Z,23.60
2023-04-29T16:29:45.453Z,23.64
2023-04-29T16:32:11.990Z,23.70
2023-04-29T16:34:38.534Z,23.73
2023-04-29T16:37:05.122Z,23.82
2023-04-29T16:39:31.680Z,23.88
2023-04-29T16:41:59.513Z,23.92
2023-04-29T16:44:26.201Z,23.94
2023-04-29T16:46:52.842Z,23.91
2023-04-29T16:49:24.977Z,24.11
2023-04-29T16:51:51.505Z,24.02
2023-04-29T16:54:18.042Z,23.68
2023-04-29T16:56:44.650Z,23.56
2023-04-29T16:59:12.455Z,23.44
2023-04-29T17:01:39.319Z,23.36
2023-04-29T17:04:06.855Z,23.21
2023-04-29T17:06:34.723Z,22.98
2023-04-29T17:09:02.479Z,22.96
2023-04-29T17:11:29.195Z,23.02
2023-04-29T17:13:55.673Z,23.07
2023-04-29T17:16:22.199Z,23.04
2023-04-29T17:18:48.697Z,22.86
2023-04-29T17:21:15.411Z,22.89
2023-04-29T17:23:41.900Z,22.81
2023-04-29T17:26:08.481Z,22.87
2023-04-29T17:28:35.086Z,22.76
2023-04-29T17:31:02.413Z,22.60
2023-04-29T17:33:34.165Z,22.67
2023-04-29T17:36:04.515Z,22.76
2023-04-29T17:38:33.133Z,22.65
2023-04-29T17:40:59.660Z,22.42
2023-04-29T17:43:27.265Z,22.39
2023-04-29T17:45:53.813Z,22.31
2023-04-29T17:48:22.402Z,22.36
2023-04-29T17:50:49.328Z,22.40
2023-04-29T17:53:16.191Z,22.36
2023-04-29T17:55:44.772Z,22.33
2023-04-29T17:58:11.742Z,22.36
2023-04-29T18:00:38.828Z,22.31
2023-04-29T18:03:05.430Z,22.30
2023-04-29T18:05:32.030Z,22.26
2023-04-29T18:07:58.519Z,22.17
2023-04-29T18:10:25.076Z,22.12
2023-04-29T18:12:51.567Z,22.09
2023-04-29T18:15:18.234Z,22.08
2023-04-29T18:17:44.738Z,21.97
2023-04-29T18:20:12.904Z,21.97
2023-04-29T18:22:39.620Z,21.98
2023-04-29T18:25:06.551Z,22.00
2023-04-29T18:27:33.100Z,21.99
2023-04-29T18:29:59.617Z,21.98
2023-04-29T18:32:26.153Z,21.93
2023-04-29T18:34:52.679Z,22.00
2023-04-29T18:37:19.223Z,22.01
2023-04-29T18:39:45.735Z,22.11
2023-04-29T18:42:12.272Z,22.14
2023-04-29T18:44:38.993Z,22.07
2023-04-29T18:47:05.810Z,22.07
2023-04-29T18:49:32.436Z,22.03
2023-04-29T18:52:01.307Z,21.95
2023-04-29T18:54:28.135Z,21.91
2023-04-29T18:56:54.633Z,21.83
2023-04-29T18:59:21.287Z,21.77
2023-04-29T19:01:48.389Z,21.81
2023-04-29T19:04:15.466Z,21.80
2023-04-29T19:06:42.861Z,21.85
2023-04-29T19:09:09.712Z,21.86
2023-04-29T19:11:36.262Z,21.87
2023-04-29T19:14:04.257Z,21.86
2023-04-29T19:16:30.895Z,21.78
2023-04-29T19:18:57.481Z,21.74
2023-04-29T19:21:24.042Z,21.74
2023-04-29T19:23:50.549Z,21.67
2023-04-29T19:26:17.117Z,21.61
2023-04-29T19:28:43.614Z,21.54
2023-04-29T19:31:11.752Z,21.54
2023-04-29T19:33:38.401Z,21.52
2023-04-29T19:36:04.918Z,21.47
2023-04-29T19:38:31.452Z,21.46
2023-04-29T19:40:58.080Z,21.40
2023-04-29T19:43:24.582Z,21.33
2023-04-29T19:45:51.107Z,21.23
2023-04-29T19:48:17.652Z,21.15
2023-04-29T19:50:44.489Z,21.05
2023-04-29T19:53:11.511Z,20.99
2023-04-29T19:55:39.853Z,20.93
2023-04-29T19:58:06.726Z,20.90
2023-04-29T20:00:33.833Z,20.83
2023-04-29T20:03:00.752Z,20.74
2023-04-29T20:05:28.345Z,20.72
2023-04-29T20:07:55.294Z,20.65
2023-04-29T20:10:22.015Z,20.57
2023-04-29T20:12:48.586Z,20.46
2023-04-29T20:15:15.103Z,20.41
2023-04-29T20:17:41.710Z,20.37
2023-04-29T20:20:09.037Z,20.30
2023-04-29T20:22:35.751Z,20.27
2023-04-29T20:25:02.580Z,20.21
2023-04-29T20:27:29.093Z,20.20
2023-04-29T20:29:56.186Z,20.12
2023-04-29T20:32:23.122Z,20.14
2023-04-29T20:34:49.743Z,20.10
2023-04-29T20:37:16.285Z,20.03
2023-04-29T20:39:43.076Z,20.00
2023-04-29T20:42:09.640Z,19.96
2023-04-29T20:44:36.760Z,19.90
2023-04-29T20:47:04.457Z,19.84
2023-04-29T20:49:30.969Z,19.84
2023-04-29T20:51:58.328Z,19.75
2023-04-29T20:54:24.928Z,19.69
2023-04-29T20:56:51.517Z,19.69
2023-04-29T20:59:17.981Z,19.67
2023-04-29T21:01:45.570Z,19.65
2023-04-29T21:04:12.213Z,19.66
2023-04-29T21:06:38.797Z,19.66
2023-04-29T21:09:05.416Z,19.63
2023-04-29T21:11:31.948Z,19.59
2023-04-29T21:13:58.537Z,19.58
2023-04-29T21:16:25.274Z,19.52
2023-04-29T21:18:51.991Z,19.44
2023-04-29T21:21:18.495Z,19.42
2023-04-29T21:23:45.034Z,19.38
2023-04-29T21:26:11.665Z,19.31
2023-04-29T21:28:38.210Z,19.24
2023-04-29T21:31:04.905Z,19.22
2023-04-29T21:33:31.380Z,19.12
2023-04-29T21:35:57.946Z,19.09
2023-04-29T21:38:24.513Z,19.11
2023-04-29T21:40:51.309Z,19.09
2023-04-29T21:43:18.364Z,19.07
2023-04-29T21:45:45.607Z,19.08
2023-04-29T21:48:20.112Z,19.22
2023-04-29T21:50:46.674Z,19.16
2023-04-29T21:53:15.803Z,19.17
2023-04-29T21:55:43.061Z,19.23
2023-04-29T21:58:10.877Z,19.21
2023-04-29T22:00:39.175Z,19.21
2023-04-29T22:03:10.734Z,19.27
2023-04-29T22:05:37.283Z,19.24
2023-04-29T22:08:07.190Z,19.21
2023-04-29T22:10:33.938Z,19.27
2023-04-29T22:13:00.735Z,19.24
2023-04-29T22:15:29.124Z,19.11
2023-04-29T22:17:56.908Z,19.17
2023-04-29T22:20:23.619Z,19.11
2023-04-29T22:22:50.131Z,19.08
2023-04-29T22:25:18.075Z,19.10
2023-04-29T22:27:44.562Z,19.11
2023-04-29T22:30:11.510Z,19.04
2023-04-29T22:32:38.180Z,18.95
2023-04-29T22:35:04.977Z,18.94
2023-04-29T22:37:31.725Z,18.89
2023-04-29T22:39:58.357Z,18.89
2023-04-29T22:42:24.845Z,18.91
2023-04-29T22:44:51.382Z,18.91
2023-04-29T22:47:17.934Z,18.84
2023-04-29T22:49:44.451Z,18.82
2023-04-29T22:52:10.977Z,18.87
2023-04-29T22:54:37.518Z,18.85
2023-04-29T22:57:04.219Z,18.84
2023-04-29T22:59:30.925Z,18.79
2023-04-29T23:01:57.735Z,18.72
2023-04-29T23:04:24.785Z,18.59
2023-04-29T23:06:51.917Z,18.56
2023-04-29T23:09:18.442Z,18.53
2023-04-29T23:11:45.085Z,18.46
2023-04-29T23:14:11.678Z,18.41
2023-04-29T23:16:38.204Z,18.39
2023-04-29T23:19:04.796Z,18.38
2023-04-29T23:21:32.489Z,18.32
2023-04-29T23:23:59.123Z,18.26
2023-04-29T23:26:25.618Z,18.21
2023-04-29T23:28:52.189Z,18.18
2023-04-29T23:31:18.841Z,18.14
2023-04-29T23:33:45.429Z,18.10
2023-04-29T23:36:12.004Z,18.10
2023-04-29T23:38:38.487Z,18.00
2023-04-29T23:41:05.073Z,17.98
2023-04-29T23:43:32.142Z,17.97
2023-04-29T23:45:58.746Z,17.95
2023-04-29T23:48:25.402Z,17.96
2023-04-29T23:50:51.916Z,17.91
2023-04-29T23:53:18.685Z,17.91
2023-04-29T23:55:45.230Z,17.87
2023-04-29T23:58:11.743Z,17.86
